Terminal Aerodrome Forecast
Issued by NWS

Home | Current Version | Previous Version | Graphics & Text | Print | Product List | Glossary Off
Versions: 1 2 3 4 5 6 7 8 9 10 11 12 13 14 15 16 17 18 19 20

000
FTUS43 KIWX 210500
TAFSBN
TAF
KSBN 210539Z 2106/2206 19005KT P6SM SCT030 BKN060
      TEMPO 2111/2114 4SM TSRA BR SCT030 BKN100CB
     FM211400 20010KT P6SM SCT060 BKN100
      TEMPO 2114/2118 3SM TSRA BR OVC060CB
     FM220000 21007KT P6SM VCTS BKN060CB=

USA.gov is the U.S. government's official web portal to all federal, state and local government web resources and services.